sensor_id;sensor_type;location;lat;lon;timestamp;P1;durP1;ratioP1;P2;durP2;ratioP2
9413;SDS011;4746;35.664;139.738;2022-11-21T00:03:49;3.80;;;3.50;;
9413;SDS011;4746;35.664;139.738;2022-11-21T00:06:17;3.60;;;3.40;;
9413;SDS011;4746;35.664;139.738;2022-11-21T00:08:45;4.37;;;3.97;;
9413;SDS011;4746;35.664;139.738;2022-11-21T00:11:13;3.63;;;3.33;;
9413;SDS011;4746;35.664;139.738;2022-11-21T00:13:41;4.10;;;3.80;;
9413;SDS011;4746;35.664;139.738;2022-11-21T00:16:11;3.80;;;3.57;;
9413;SDS011;4746;35.664;139.738;2022-11-21T00:18:41;4.07;;;3.77;;
9413;SDS011;4746;35.664;139.738;2022-11-21T00:21:13;3.73;;;3.20;;
9413;SDS011;4746;35.664;139.738;2022-11-21T00:23:43;3.33;;;3.03;;
9413;SDS011;4746;35.664;139.738;2022-11-21T00:26:12;2.97;;;2.70;;
9413;SDS011;4746;35.664;139.738;2022-11-21T00:28:43;3.57;;;3.27;;
9413;SDS011;4746;35.664;139.738;2022-11-21T00:31:17;3.57;;;3.23;;
9413;SDS011;4746;35.664;139.738;2022-11-21T00:33:48;4.07;;;3.67;;
9413;SDS011;4746;35.664;139.738;2022-11-21T00:36:15;5.10;;;4.00;;
9413;SDS011;4746;35.664;139.738;2022-11-21T00:38:43;4.70;;;4.17;;
9413;SDS011;4746;35.664;139.738;2022-11-21T00:41:10;4.47;;;4.03;;
9413;SDS011;4746;35.664;139.738;2022-11-21T00:43:38;4.10;;;3.77;;
9413;SDS011;4746;35.664;139.738;2022-11-21T00:46:05;4.50;;;4.10;;
9413;SDS011;4746;35.664;139.738;2022-11-21T00:48:33;4.60;;;4.20;;
9413;SDS011;4746;35.664;139.738;2022-11-21T00:51:00;4.30;;;3.90;;
9413;SDS011;4746;35.664;139.738;2022-11-21T00:53:28;4.00;;;3.70;;
9413;SDS011;4746;35.664;139.738;2022-11-21T00:55:56;3.63;;;3.33;;
9413;SDS011;4746;35.664;139.738;2022-11-21T00:58:24;3.63;;;3.20;;
9413;SDS011;4746;35.664;139.738;2022-11-21T01:00:52;3.00;;;2.80;;
9413;SDS011;4746;35.664;139.738;2022-11-21T01:03:34;3.37;;;3.10;;
9413;SDS011;4746;35.664;139.738;2022-11-21T01:06:05;2.80;;;2.60;;
9413;SDS011;4746;35.664;139.738;2022-11-21T01:08:39;3.20;;;3.00;;
9413;SDS011;4746;35.664;139.738;2022-11-21T01:11:10;3.50;;;3.07;;
9413;SDS011;4746;35.664;139.738;2022-11-21T01:13:41;2.70;;;2.50;;
9413;SDS011;4746;35.664;139.738;2022-11-21T01:16:11;3.07;;;2.80;;
9413;SDS011;4746;35.664;139.738;2022-11-21T01:18:42;2.93;;;2.73;;
9413;SDS011;4746;35.664;139.738;2022-11-21T01:21:23;2.93;;;2.67;;
9413;SDS011;4746;35.664;139.738;2022-11-21T01:23:54;3.70;;;2.70;;
9413;SDS011;4746;35.664;139.738;2022-11-21T01:26:25;5.00;;;3.17;;
9413;SDS011;4746;35.664;139.738;2022-11-21T01:28:58;2.93;;;2.73;;
9413;SDS011;4746;35.664;139.738;2022-11-21T01:31:27;3.70;;;3.30;;
9413;SDS011;4746;35.664;139.738;2022-11-21T01:33:56;3.63;;;3.33;;
9413;SDS011;4746;35.664;139.738;2022-11-21T01:36:32;3.70;;;3.40;;
9413;SDS011;4746;35.664;139.738;2022-11-21T01:39:02;4.00;;;3.60;;
9413;SDS011;4746;35.664;139.738;2022-11-21T01:41:38;3.97;;;3.57;;
9413;SDS011;4746;35.664;139.738;2022-11-21T01:46:48;4.03;;;3.47;;
9413;SDS011;4746;35.664;139.738;2022-11-21T01:52:05;3.40;;;3.10;;
9413;SDS011;4746;35.664;139.738;2022-11-21T01:57:27;3.37;;;3.00;;
9413;SDS011;4746;35.664;139.738;2022-11-21T02:00:23;3.47;;;3.00;;
9413;SDS011;4746;35.664;139.738;2022-11-21T02:03:01;2.70;;;2.50;;
9413;SDS011;4746;35.664;139.738;2022-11-21T02:05:37;3.60;;;2.50;;
9413;SDS011;4746;35.664;139.738;2022-11-21T02:08:17;3.17;;;2.70;;
9413;SDS011;4746;35.664;139.738;2022-11-21T02:11:07;2.63;;;2.43;;
9413;SDS011;4746;35.664;139.738;2022-11-21T02:13:54;2.60;;;2.40;;
9413;SDS011;4746;35.664;139.738;2022-11-21T02:16:22;2.97;;;2.77;;
9413;SDS011;4746;35.664;139.738;2022-11-21T02:18:51;2.70;;;2.50;;
9413;SDS011;4746;35.664;139.738;2022-11-21T02:21:31;4.20;;;3.00;;
9413;SDS011;4746;35.664;139.738;2022-11-21T02:24:44;3.07;;;2.87;;
9413;SDS011;4746;35.664;139.738;2022-11-21T02:27:14;4.70;;;4.20;;
9413;SDS011;4746;35.664;139.738;2022-11-21T02:29:43;5.07;;;4.03;;
9413;SDS011;4746;35.664;139.738;2022-11-21T02:32:21;4.17;;;3.77;;
9413;SDS011;4746;35.664;139.738;2022-11-21T02:34:56;4.87;;;4.47;;
9413;SDS011;4746;35.664;139.738;2022-11-21T02:37:23;5.07;;;4.57;;
9413;SDS011;4746;35.664;139.738;2022-11-21T02:39:51;4.90;;;4.50;;
9413;SDS011;4746;35.664;139.738;2022-11-21T02:42:27;5.23;;;4.77;;
9413;SDS011;4746;35.664;139.738;2022-11-21T02:48:02;4.60;;;4.20;;
9413;SDS011;4746;35.664;139.738;2022-11-21T02:50:31;4.80;;;4.40;;
9413;SDS011;4746;35.664;139.738;2022-11-21T02:53:12;5.20;;;4.80;;
9413;SDS011;4746;35.664;139.738;2022-11-21T02:55:43;5.80;;;5.30;;
9413;SDS011;4746;35.664;139.738;2022-11-21T02:58:12;5.27;;;4.77;;
9413;SDS011;4746;35.664;139.738;2022-11-21T03:00:40;5.07;;;4.57;;
9413;SDS011;4746;35.664;139.738;2022-11-21T03:03:08;4.90;;;4.43;;
9413;SDS011;4746;35.664;139.738;2022-11-21T03:05:36;4.93;;;4.50;;
9413;SDS011;4746;35.664;139.738;2022-11-21T03:08:05;4.37;;;4.07;;
9413;SDS011;4746;35.664;139.738;2022-11-21T03:10:33;5.80;;;5.30;;
9413;SDS011;4746;35.664;139.738;2022-11-21T03:13:01;5.47;;;5.07;;
9413;SDS011;4746;35.664;139.738;2022-11-21T03:15:30;5.07;;;4.67;;
9413;SDS011;4746;35.664;139.738;2022-11-21T03:18:00;5.67;;;5.17;;
9413;SDS011;4746;35.664;139.738;2022-11-21T03:20:29;5.73;;;4.80;;
9413;SDS011;4746;35.664;139.738;2022-11-21T03:22:58;5.23;;;4.83;;
9413;SDS011;4746;35.664;139.738;2022-11-21T03:25:27;6.00;;;5.50;;
9413;SDS011;4746;35.664;139.738;2022-11-21T03:27:54;6.63;;;6.00;;
9413;SDS011;4746;35.664;139.738;2022-11-21T03:30:23;6.87;;;5.90;;
9413;SDS011;4746;35.664;139.738;2022-11-21T03:32:54;7.10;;;5.90;;
9413;SDS011;4746;35.664;139.738;2022-11-21T03:35:23;5.73;;;5.17;;
9413;SDS011;4746;35.664;139.738;2022-11-21T03:37:51;5.80;;;5.20;;
9413;SDS011;4746;35.664;139.738;2022-11-21T03:40:18;5.97;;;5.47;;
9413;SDS011;4746;35.664;139.738;2022-11-21T03:42:46;5.87;;;4.77;;
9413;SDS011;4746;35.664;139.738;2022-11-21T03:45:14;5.40;;;5.00;;
9413;SDS011;4746;35.664;139.738;2022-11-21T03:47:41;5.57;;;4.60;;
9413;SDS011;4746;35.664;139.738;2022-11-21T03:50:09;4.50;;;4.20;;
9413;SDS011;4746;35.664;139.738;2022-11-21T03:52:39;5.10;;;4.70;;
9413;SDS011;4746;35.664;139.738;2022-11-21T03:55:07;4.85;;;4.45;;
9413;SDS011;4746;35.664;139.738;2022-11-21T03:57:34;4.57;;;4.22;;
9413;SDS011;4746;35.664;139.738;2022-11-21T04:00:03;5.25;;;4.80;;
9413;SDS011;4746;35.664;139.738;2022-11-21T04:02:31;6.05;;;5.05;;
9413;SDS011;4746;35.664;139.738;2022-11-21T04:04:59;5.35;;;4.95;;
9413;SDS011;4746;35.664;139.738;2022-11-21T04:07:26;5.80;;;5.38;;
9413;SDS011;4746;35.664;139.738;2022-11-21T04:09:54;6.18;;;5.68;;
9413;SDS011;4746;35.664;139.738;2022-11-21T04:12:23;6.18;;;5.57;;
9413;SDS011;4746;35.664;139.738;2022-11-21T04:14:50;5.45;;;5.05;;
9413;SDS011;4746;35.664;139.738;2022-11-21T04:17:18;6.57;;;4.85;;
9413;SDS011;4746;35.664;139.738;2022-11-21T04:19:45;4.25;;;3.95;;
9413;SDS011;4746;35.664;139.738;2022-11-21T04:22:13;5.03;;;4.63;;
9413;SDS011;4746;35.664;139.738;2022-11-21T04:24:40;6.38;;;4.50;;
9413;SDS011;4746;35.664;139.738;2022-11-21T04:27:08;5.38;;;4.85;;
9413;SDS011;4746;35.664;139.738;2022-11-21T04:29:35;5.22;;;4.72;;
9413;SDS011;4746;35.664;139.738;2022-11-21T04:32:03;6.85;;;4.55;;
9413;SDS011;4746;35.664;139.738;2022-11-21T04:34:30;5.13;;;4.75;;
9413;SDS011;4746;35.664;139.738;2022-11-21T04:36:59;5.38;;;4.30;;
9413;SDS011;4746;35.664;139.738;2022-11-21T04:39:27;4.75;;;4.45;;
9413;SDS011;4746;35.664;139.738;2022-11-21T04:41:54;4.85;;;4.40;;
9413;SDS011;4746;35.664;139.738;2022-11-21T04:44:21;3.80;;;3.50;;
9413;SDS011;4746;35.664;139.738;2022-11-21T04:46:49;5.07;;;4.65;;
9413;SDS011;4746;35.664;139.738;2022-11-21T04:49:17;3.92;;;3.63;;
9413;SDS011;4746;35.664;139.738;2022-11-21T04:51:45;4.32;;;4.03;;
9413;SDS011;4746;35.664;139.738;2022-11-21T04:54:12;4.47;;;3.95;;
9413;SDS011;4746;35.664;139.738;2022-11-21T04:56:40;5.05;;;3.58;;
9413;SDS011;4746;35.664;139.738;2022-11-21T04:59:07;4.38;;;3.83;;
9413;SDS011;4746;35.664;139.738;2022-11-21T05:01:37;4.28;;;3.97;;
9413;SDS011;4746;35.664;139.738;2022-11-21T05:04:04;5.35;;;3.63;;
9413;SDS011;4746;35.664;139.738;2022-11-21T05:06:32;4.00;;;3.45;;
9413;SDS011;4746;35.664;139.738;2022-11-21T05:08:59;4.07;;;3.78;;
9413;SDS011;4746;35.664;139.738;2022-11-21T05:11:29;3.95;;;3.65;;
9413;SDS011;4746;35.664;139.738;2022-11-21T05:14:14;3.50;;;3.20;;
9413;SDS011;4746;35.664;139.738;2022-11-21T05:16:42;4.30;;;3.50;;
9413;SDS011;4746;35.664;139.738;2022-11-21T05:19:09;4.32;;;3.10;;
9413;SDS011;4746;35.664;139.738;2022-11-21T05:21:37;3.60;;;3.28;;
9413;SDS011;4746;35.664;139.738;2022-11-21T05:24:04;5.35;;;4.47;;
9413;SDS011;4746;35.664;139.738;2022-11-21T05:26:32;4.85;;;4.45;;
9413;SDS011;4746;35.664;139.738;2022-11-21T05:29:00;4.97;;;4.47;;
9413;SDS011;4746;35.664;139.738;2022-11-21T05:31:27;5.63;;;4.70;;
9413;SDS011;4746;35.664;139.738;2022-11-21T05:33:55;6.80;;;4.82;;
9413;SDS011;4746;35.664;139.738;2022-11-21T05:36:23;5.72;;;4.78;;
9413;SDS011;4746;35.664;139.738;2022-11-21T05:38:50;5.97;;;5.47;;
9413;SDS011;4746;35.664;139.738;2022-11-21T05:41:18;5.95;;;4.68;;
9413;SDS011;4746;35.664;139.738;2022-11-21T05:43:45;6.75;;;5.40;;
9413;SDS011;4746;35.664;139.738;2022-11-21T05:46:22;6.57;;;5.90;;
9413;SDS011;4746;35.664;139.738;2022-11-21T05:48:52;6.85;;;5.47;;
9413;SDS011;4746;35.664;139.738;2022-11-21T05:51:20;7.40;;;5.05;;
9413;SDS011;4746;35.664;139.738;2022-11-21T05:53:50;6.95;;;5.32;;
9413;SDS011;4746;35.664;139.738;2022-11-21T05:56:18;5.22;;;4.53;;
9413;SDS011;4746;35.664;139.738;2022-11-21T05:58:47;6.03;;;4.70;;
9413;SDS011;4746;35.664;139.738;2022-11-21T06:01:15;4.63;;;4.22;;
9413;SDS011;4746;35.664;139.738;2022-11-21T06:04:02;5.13;;;3.92;;
9413;SDS011;4746;35.664;139.738;2022-11-21T06:06:30;3.92;;;3.45;;
9413;SDS011;4746;35.664;139.738;2022-11-21T06:08:58;3.60;;;3.30;;
9413;SDS011;4746;35.664;139.738;2022-11-21T06:11:26;3.90;;;3.50;;
9413;SDS011;4746;35.664;139.738;2022-11-21T06:13:54;6.45;;;3.78;;
9413;SDS011;4746;35.664;139.738;2022-11-21T06:16:22;3.72;;;3.42;;
9413;SDS011;4746;35.664;139.738;2022-11-21T06:18:50;3.80;;;3.15;;
9413;SDS011;4746;35.664;139.738;2022-11-21T06:21:19;4.28;;;3.92;;
9413;SDS011;4746;35.664;139.738;2022-11-21T06:23:53;3.97;;;3.58;;
9413;SDS011;4746;35.664;139.738;2022-11-21T06:26:24;4.88;;;4.13;;
9413;SDS011;4746;35.664;139.738;2022-11-21T06:28:53;4.35;;;3.90;;
9413;SDS011;4746;35.664;139.738;2022-11-21T06:31:22;4.30;;;3.92;;
9413;SDS011;4746;35.664;139.738;2022-11-21T06:33:55;5.90;;;4.00;;
9413;SDS011;4746;35.664;139.738;2022-11-21T06:36:24;4.45;;;4.13;;
9413;SDS011;4746;35.664;139.738;2022-11-21T06:38:53;5.97;;;4.00;;
9413;SDS011;4746;35.664;139.738;2022-11-21T06:41:22;5.05;;;3.95;;
9413;SDS011;4746;35.664;139.738;2022-11-21T06:43:54;4.35;;;4.05;;
9413;SDS011;4746;35.664;139.738;2022-11-21T06:46:27;6.68;;;4.25;;
9413;SDS011;4746;35.664;139.738;2022-11-21T06:48:55;6.63;;;4.13;;
9413;SDS011;4746;35.664;139.738;2022-11-21T06:51:23;4.75;;;4.35;;
9413;SDS011;4746;35.664;139.738;2022-11-21T06:53:51;5.53;;;4.38;;
9413;SDS011;4746;35.664;139.738;2022-11-21T06:56:24;8.30;;;5.13;;
9413;SDS011;4746;35.664;139.738;2022-11-21T06:58:54;5.28;;;4.78;;
9413;SDS011;4746;35.664;139.738;2022-11-21T07:01:22;5.78;;;5.05;;
9413;SDS011;4746;35.664;139.738;2022-11-21T07:03:51;6.43;;;4.97;;
9413;SDS011;4746;35.664;139.738;2022-11-21T07:06:19;6.43;;;5.38;;
9413;SDS011;4746;35.664;139.738;2022-11-21T07:08:47;6.05;;;5.30;;
9413;SDS011;4746;35.664;139.738;2022-11-21T07:11:18;5.18;;;4.70;;
9413;SDS011;4746;35.664;139.738;2022-11-21T07:13:46;6.15;;;5.45;;
9413;SDS011;4746;35.664;139.738;2022-11-21T07:16:14;6.40;;;5.60;;
9413;SDS011;4746;35.664;139.738;2022-11-21T07:18:43;7.85;;;6.13;;
9413;SDS011;4746;35.664;139.738;2022-11-21T07:21:11;6.55;;;5.95;;
9413;SDS011;4746;35.664;139.738;2022-11-21T07:23:39;6.68;;;5.90;;
9413;SDS011;4746;35.664;139.738;2022-11-21T07:26:07;6.53;;;5.93;;
9413;SDS011;4746;35.664;139.738;2022-11-21T07:28:36;7.30;;;6.63;;
9413;SDS011;4746;35.664;139.738;2022-11-21T07:31:04;8.32;;;7.25;;
9413;SDS011;4746;35.664;139.738;2022-11-21T07:33:31;8.27;;;6.97;;
9413;SDS011;4746;35.664;139.738;2022-11-21T07:35:59;8.05;;;7.25;;
9413;SDS011;4746;35.664;139.738;2022-11-21T07:38:26;9.65;;;8.38;;
9413;SDS011;4746;35.664;139.738;2022-11-21T07:40:55;8.98;;;8.18;;
9413;SDS011;4746;35.664;139.738;2022-11-21T07:43:22;10.98;;;8.90;;
9413;SDS011;4746;35.664;139.738;2022-11-21T07:45:50;10.35;;;9.10;;
9413;SDS011;4746;35.664;139.738;2022-11-21T07:48:17;9.88;;;8.95;;
9413;SDS011;4746;35.664;139.738;2022-11-21T07:50:45;9.97;;;8.97;;
9413;SDS011;4746;35.664;139.738;2022-11-21T07:53:13;10.47;;;9.50;;
9413;SDS011;4746;35.664;139.738;2022-11-21T07:55:40;11.47;;;8.63;;
9413;SDS011;4746;35.664;139.738;2022-11-21T07:58:09;9.00;;;8.23;;
9413;SDS011;4746;35.664;139.738;2022-11-21T08:00:39;10.60;;;9.10;;
9413;SDS011;4746;35.664;139.738;2022-11-21T08:03:08;11.70;;;10.60;;
9413;SDS011;4746;35.664;139.738;2022-11-21T08:05:37;11.90;;;10.80;;
9413;SDS011;4746;35.664;139.738;2022-11-21T08:08:08;10.73;;;9.63;;
9413;SDS011;4746;35.664;139.738;2022-11-21T08:10:37;10.97;;;9.93;;
9413;SDS011;4746;35.664;139.738;2022-11-21T08:13:09;11.63;;;10.43;;
9413;SDS011;4746;35.664;139.738;2022-11-21T08:15:38;11.30;;;10.17;;
9413;SDS011;4746;35.664;139.738;2022-11-21T08:18:12;11.73;;;10.53;;
9413;SDS011;4746;35.664;139.738;2022-11-21T08:20:45;12.07;;;10.90;;
9413;SDS011;4746;35.664;139.738;2022-11-21T08:23:13;18.70;;;12.13;;
9413;SDS011;4746;35.664;139.738;2022-11-21T08:25:42;14.93;;;11.87;;
9413;SDS011;4746;35.664;139.738;2022-11-21T08:28:09;18.90;;;12.33;;
9413;SDS011;4746;35.664;139.738;2022-11-21T08:30:38;17.80;;;11.83;;
9413;SDS011;4746;35.664;139.738;2022-11-21T08:33:06;15.80;;;12.50;;
9413;SDS011;4746;35.664;139.738;2022-11-21T08:35:34;13.47;;;12.10;;
9413;SDS011;4746;35.664;139.738;2022-11-21T08:38:03;14.03;;;12.63;;
9413;SDS011;4746;35.664;139.738;2022-11-21T08:40:32;13.70;;;12.40;;
9413;SDS011;4746;35.664;139.738;2022-11-21T08:43:04;13.63;;;12.23;;
9413;SDS011;4746;35.664;139.738;2022-11-21T08:45:34;13.83;;;12.57;;
9413;SDS011;4746;35.664;139.738;2022-11-21T08:48:08;14.40;;;12.93;;
9413;SDS011;4746;35.664;139.738;2022-11-21T08:50:36;14.57;;;13.30;;
9413;SDS011;4746;35.664;139.738;2022-11-21T08:53:04;14.07;;;12.67;;
9413;SDS011;4746;35.664;139.738;2022-11-21T08:55:32;15.30;;;13.67;;
9413;SDS011;4746;35.664;139.738;2022-11-21T08:57:59;15.33;;;13.63;;
9413;SDS011;4746;35.664;139.738;2022-11-21T09:00:27;15.60;;;14.00;;
9413;SDS011;4746;35.664;139.738;2022-11-21T09:02:54;15.80;;;14.13;;
9413;SDS011;4746;35.664;139.738;2022-11-21T09:05:22;14.43;;;13.20;;
9413;SDS011;4746;35.664;139.738;2022-11-21T09:07:55;14.90;;;13.50;;
9413;SDS011;4746;35.664;139.738;2022-11-21T09:10:24;14.90;;;13.60;;
9413;SDS011;4746;35.664;139.738;2022-11-21T09:12:56;14.10;;;12.70;;
9413;SDS011;4746;35.664;139.738;2022-11-21T09:15:26;14.03;;;12.63;;
9413;SDS011;4746;35.664;139.738;2022-11-21T09:18:12;14.47;;;13.07;;
9413;SDS011;4746;35.664;139.738;2022-11-21T09:20:42;14.47;;;13.07;;
9413;SDS011;4746;35.664;139.738;2022-11-21T09:23:11;13.60;;;12.50;;
9413;SDS011;4746;35.664;139.738;2022-11-21T09:25:41;14.77;;;13.23;;
9413;SDS011;4746;35.664;139.738;2022-11-21T09:28:10;14.67;;;13.47;;
9413;SDS011;4746;35.664;139.738;2022-11-21T09:30:39;14.53;;;13.13;;
9413;SDS011;4746;35.664;139.738;2022-11-21T09:33:12;14.17;;;12.97;;
9413;SDS011;4746;35.664;139.738;2022-11-21T09:35:44;15.20;;;13.73;;
9413;SDS011;4746;35.664;139.738;2022-11-21T09:38:11;15.40;;;13.97;;
9413;SDS011;4746;35.664;139.738;2022-11-21T09:40:42;15.13;;;13.63;;
9413;SDS011;4746;35.664;139.738;2022-11-21T09:48:51;16.93;;;15.40;;
9413;SDS011;4746;35.664;139.738;2022-11-21T09:51:30;16.97;;;15.50;;
9413;SDS011;4746;35.664;139.738;2022-11-21T09:54:02;16.90;;;15.37;;
9413;SDS011;4746;35.664;139.738;2022-11-21T09:56:40;16.00;;;14.53;;
9413;SDS011;4746;35.664;139.738;2022-11-21T10:02:12;15.13;;;13.70;;
9413;SDS011;4746;35.664;139.738;2022-11-21T10:04:47;16.27;;;14.67;;
9413;SDS011;4746;35.664;139.738;2022-11-21T10:15:46;14.10;;;12.80;;
9413;SDS011;4746;35.664;139.738;2022-11-21T10:18:52;15.93;;;14.43;;
9413;SDS011;4746;35.664;139.738;2022-11-21T10:22:07;14.83;;;13.33;;
9413;SDS011;4746;35.664;139.738;2022-11-21T10:25:13;15.83;;;13.70;;
9413;SDS011;4746;35.664;139.738;2022-11-21T10:27:51;14.33;;;12.90;;
9413;SDS011;4746;35.664;139.738;2022-11-21T10:30:33;15.03;;;13.40;;
9413;SDS011;4746;35.664;139.738;2022-11-21T10:33:10;15.73;;;13.67;;
9413;SDS011;4746;35.664;139.738;2022-11-21T10:36:08;17.70;;;15.90;;
9413;SDS011;4746;35.664;139.738;2022-11-21T10:39:00;14.20;;;12.93;;
9413;SDS011;4746;35.664;139.738;2022-11-21T10:42:03;14.73;;;12.67;;
9413;SDS011;4746;35.664;139.738;2022-11-21T10:44:41;13.40;;;12.03;;
9413;SDS011;4746;35.664;139.738;2022-11-21T10:47:33;17.37;;;13.83;;
9413;SDS011;4746;35.664;139.738;2022-11-21T10:52:47;14.10;;;12.53;;
9413;SDS011;4746;35.664;139.738;2022-11-21T10:56:02;14.13;;;12.80;;
9413;SDS011;4746;35.664;139.738;2022-11-21T10:58:43;16.47;;;12.77;;
9413;SDS011;4746;35.664;139.738;2022-11-21T11:01:17;15.43;;;13.83;;
9413;SDS011;4746;35.664;139.738;2022-11-21T11:04:15;17.17;;;14.77;;
9413;SDS011;4746;35.664;139.738;2022-11-21T11:06:45;16.03;;;14.33;;
9413;SDS011;4746;35.664;139.738;2022-11-21T11:09:23;15.47;;;13.90;;
9413;SDS011;4746;35.664;139.738;2022-11-21T11:15:18;16.17;;;14.53;;
9413;SDS011;4746;35.664;139.738;2022-11-21T11:17:58;18.17;;;16.33;;
9413;SDS011;4746;35.664;139.738;2022-11-21T11:23:24;20.13;;;18.17;;
9413;SDS011;4746;35.664;139.738;2022-11-21T11:25:54;18.90;;;17.20;;
9413;SDS011;4746;35.664;139.738;2022-11-21T11:28:26;19.97;;;18.20;;
9413;SDS011;4746;35.664;139.738;2022-11-21T11:31:01;21.47;;;19.37;;
9413;SDS011;4746;35.664;139.738;2022-11-21T11:33:33;19.30;;;17.43;;
9413;SDS011;4746;35.664;139.738;2022-11-21T11:55:33;21.77;;;19.77;;
9413;SDS011;4746;35.664;139.738;2022-11-21T11:58:26;19.00;;;17.00;;
9413;SDS011;4746;35.664;139.738;2022-11-21T12:01:19;21.53;;;19.27;;
9413;SDS011;4746;35.664;139.738;2022-11-21T12:04:21;20.47;;;18.47;;
9413;SDS011;4746;35.664;139.738;2022-11-21T12:09:55;19.77;;;17.73;;
9413;SDS011;4746;35.664;139.738;2022-11-21T12:12:35;19.80;;;17.87;;
9413;SDS011;4746;35.664;139.738;2022-11-21T12:15:15;21.33;;;18.57;;
9413;SDS011;4746;35.664;139.738;2022-11-21T12:21:13;20.60;;;18.80;;
9413;SDS011;4746;35.664;139.738;2022-11-21T12:23:55;20.13;;;17.97;;
9413;SDS011;4746;35.664;139.738;2022-11-21T12:44:28;20.13;;;18.43;;
9413;SDS011;4746;35.664;139.738;2022-11-21T12:50:23;19.87;;;18.10;;
9413;SDS011;4746;35.664;139.738;2022-11-21T12:53:29;22.40;;;20.07;;
9413;SDS011;4746;35.664;139.738;2022-11-21T12:59:29;19.77;;;17.73;;
9413;SDS011;4746;35.664;139.738;2022-11-21T13:02:18;19.57;;;17.47;;
9413;SDS011;4746;35.664;139.738;2022-11-21T13:04:54;20.00;;;17.87;;
9413;SDS011;4746;35.664;139.738;2022-11-21T13:07:26;21.37;;;19.13;;
9413;SDS011;4746;35.664;139.738;2022-11-21T13:09:57;20.23;;;18.23;;
9413;SDS011;4746;35.664;139.738;2022-11-21T13:15:33;21.37;;;19.27;;
9413;SDS011;4746;35.664;139.738;2022-11-21T13:18:27;22.10;;;19.80;;
9413;SDS011;4746;35.664;139.738;2022-11-21T13:32:42;22.77;;;20.60;;
9413;SDS011;4746;35.664;139.738;2022-11-21T13:37:58;23.23;;;20.50;;
9413;SDS011;4746;35.664;139.738;2022-11-21T13:40:34;25.03;;;22.40;;
9413;SDS011;4746;35.664;139.738;2022-11-21T13:43:29;23.20;;;20.53;;
9413;SDS011;4746;35.664;139.738;2022-11-21T13:45:56;26.53;;;23.93;;
9413;SDS011;4746;35.664;139.738;2022-11-21T13:48:30;23.27;;;21.10;;
9413;SDS011;4746;35.664;139.738;2022-11-21T13:54:23;26.07;;;23.33;;
9413;SDS011;4746;35.664;139.738;2022-11-21T13:57:35;27.77;;;24.87;;
9413;SDS011;4746;35.664;139.738;2022-11-21T14:03:13;26.70;;;23.87;;
9413;SDS011;4746;35.664;139.738;2022-11-21T14:06:08;26.90;;;24.23;;
9413;SDS011;4746;35.664;139.738;2022-11-21T14:09:04;25.00;;;22.40;;
9413;SDS011;4746;35.664;139.738;2022-11-21T14:11:53;26.90;;;23.93;;
9413;SDS011;4746;35.664;139.738;2022-11-21T14:18:21;27.93;;;25.20;;
9413;SDS011;4746;35.664;139.738;2022-11-21T14:20:54;28.33;;;25.43;;
9413;SDS011;4746;35.664;139.738;2022-11-21T14:23:29;29.00;;;26.30;;
9413;SDS011;4746;35.664;139.738;2022-11-21T14:26:03;26.40;;;23.70;;
9413;SDS011;4746;35.664;139.738;2022-11-21T14:28:39;26.50;;;23.70;;
9413;SDS011;4746;35.664;139.738;2022-11-21T14:31:08;26.60;;;24.10;;
9413;SDS011;4746;35.664;139.738;2022-11-21T14:33:38;28.37;;;25.17;;
9413;SDS011;4746;35.664;139.738;2022-11-21T14:36:18;28.07;;;25.07;;
9413;SDS011;4746;35.664;139.738;2022-11-21T14:51:47;25.90;;;23.20;;
9413;SDS011;4746;35.664;139.738;2022-11-21T14:54:41;26.63;;;24.07;;
9413;SDS011;4746;35.664;139.738;2022-11-21T14:57:24;27.90;;;25.23;;
9413;SDS011;4746;35.664;139.738;2022-11-21T15:00:00;27.37;;;24.77;;
9413;SDS011;4746;35.664;139.738;2022-11-21T15:02:32;30.47;;;27.67;;
9413;SDS011;4746;35.664;139.738;2022-11-21T15:05:01;31.33;;;28.43;;
9413;SDS011;4746;35.664;139.738;2022-11-21T15:07:40;31.23;;;28.30;;
9413;SDS011;4746;35.664;139.738;2022-11-21T15:10:12;31.67;;;28.37;;
9413;SDS011;4746;35.664;139.738;2022-11-21T15:15:32;31.33;;;28.30;;
9413;SDS011;4746;35.664;139.738;2022-11-21T15:18:13;30.63;;;27.67;;
9413;SDS011;4746;35.664;139.738;2022-11-21T15:20:56;26.30;;;23.87;;
9413;SDS011;4746;35.664;139.738;2022-11-21T15:25:58;28.50;;;25.87;;
9413;SDS011;4746;35.664;139.738;2022-11-21T15:28:26;29.27;;;26.43;;
9413;SDS011;4746;35.664;139.738;2022-11-21T15:33:52;26.13;;;23.53;;
9413;SDS011;4746;35.664;139.738;2022-11-21T15:36:29;26.43;;;23.10;;
9413;SDS011;4746;35.664;139.738;2022-11-21T15:41:27;24.43;;;20.60;;
9413;SDS011;4746;35.664;139.738;2022-11-21T15:46:29;21.53;;;19.33;;
9413;SDS011;4746;35.664;139.738;2022-11-21T15:49:11;22.93;;;20.40;;
9413;SDS011;4746;35.664;139.738;2022-11-21T15:51:41;21.17;;;19.03;;
9413;SDS011;4746;35.664;139.738;2022-11-21T15:54:16;21.03;;;18.97;;
9413;SDS011;4746;35.664;139.738;2022-11-21T15:56:47;20.40;;;18.50;;
9413;SDS011;4746;35.664;139.738;2022-11-21T15:59:14;20.47;;;18.33;;
9413;SDS011;4746;35.664;139.738;2022-11-21T16:01:45;20.07;;;18.03;;
9413;SDS011;4746;35.664;139.738;2022-11-21T16:04:12;19.53;;;17.07;;
9413;SDS011;4746;35.664;139.738;2022-11-21T16:06:40;17.43;;;15.70;;
9413;SDS011;4746;35.664;139.738;2022-11-21T16:09:07;17.00;;;15.23;;
9413;SDS011;4746;35.664;139.738;2022-11-21T16:11:35;18.60;;;14.93;;
9413;SDS011;4746;35.664;139.738;2022-11-21T16:14:05;15.40;;;13.83;;
9413;SDS011;4746;35.664;139.738;2022-11-21T16:16:38;14.50;;;13.00;;
9413;SDS011;4746;35.664;139.738;2022-11-21T16:19:11;15.73;;;14.23;;
9413;SDS011;4746;35.664;139.738;2022-11-21T16:21:40;15.33;;;13.93;;
9413;SDS011;4746;35.664;139.738;2022-11-21T16:24:08;16.67;;;13.67;;
9413;SDS011;4746;35.664;139.738;2022-11-21T16:26:35;15.40;;;13.17;;
9413;SDS011;4746;35.664;139.738;2022-11-21T16:29:03;14.07;;;12.63;;
9413;SDS011;4746;35.664;139.738;2022-11-21T16:31:31;14.23;;;12.80;;
9413;SDS011;4746;35.664;139.738;2022-11-21T16:33:59;12.97;;;11.67;;
9413;SDS011;4746;35.664;139.738;2022-11-21T16:36:30;14.70;;;12.47;;
9413;SDS011;4746;35.664;139.738;2022-11-21T16:38:58;12.77;;;11.70;;
9413;SDS011;4746;35.664;139.738;2022-11-21T16:41:28;14.33;;;12.10;;
9413;SDS011;4746;35.664;139.738;2022-11-21T16:43:56;13.23;;;11.93;;
9413;SDS011;4746;35.664;139.738;2022-11-21T16:46:23;13.37;;;11.90;;
9413;SDS011;4746;35.664;139.738;2022-11-21T16:49:01;14.30;;;12.80;;
9413;SDS011;4746;35.664;139.738;2022-11-21T16:51:29;14.37;;;12.70;;
9413;SDS011;4746;35.664;139.738;2022-11-21T16:53:57;13.53;;;12.33;;
9413;SDS011;4746;35.664;139.738;2022-11-21T16:56:24;14.83;;;12.80;;
9413;SDS011;4746;35.664;139.738;2022-11-21T16:58:52;15.10;;;13.67;;
9413;SDS011;4746;35.664;139.738;2022-11-21T17:01:22;14.97;;;13.57;;
9413;SDS011;4746;35.664;139.738;2022-11-21T17:03:52;14.40;;;12.97;;
9413;SDS011;4746;35.664;139.738;2022-11-21T17:06:20;14.47;;;12.97;;
9413;SDS011;4746;35.664;139.738;2022-11-21T17:08:53;14.60;;;11.87;;
9413;SDS011;4746;35.664;139.738;2022-11-21T17:11:22;14.53;;;13.10;;
9413;SDS011;4746;35.664;139.738;2022-11-21T17:13:53;14.63;;;12.33;;
9413;SDS011;4746;35.664;139.738;2022-11-21T17:16:25;13.63;;;12.17;;
9413;SDS011;4746;35.664;139.738;2022-11-21T17:19:00;14.57;;;12.83;;
9413;SDS011;4746;35.664;139.738;2022-11-21T17:21:29;14.67;;;12.37;;
9413;SDS011;4746;35.664;139.738;2022-11-21T17:23:57;15.00;;;13.47;;
9413;SDS011;4746;35.664;139.738;2022-11-21T17:26:26;13.63;;;12.27;;
9413;SDS011;4746;35.664;139.738;2022-11-21T17:28:55;15.03;;;13.17;;
9413;SDS011;4746;35.664;139.738;2022-11-21T17:31:27;15.10;;;13.43;;